createdAt,value
2022-09-28T00:02:21.229Z,2.25
2022-09-28T00:04:51.007Z,2.03
2022-09-28T00:07:21.004Z,2.40
2022-09-28T00:09:52.439Z,2.40
2022-09-28T00:12:25.098Z,2.40
2022-09-28T00:14:55.824Z,2.97
2022-09-28T00:17:34.052Z,2.35
2022-09-28T00:20:05.015Z,2.33
2022-09-28T00:22:34.736Z,2.50
2022-09-28T00:25:04.748Z,2.60
2022-09-28T00:27:37.708Z,2.85
2022-09-28T00:30:08.409Z,2.70
2022-09-28T00:32:38.105Z,2.30
2022-09-28T00:35:08.509Z,2.90
2022-09-28T00:37:38.244Z,2.85
2022-09-28T00:40:09.095Z,3.30
2022-09-28T00:42:43.642Z,3.38
2022-09-28T00:45:14.142Z,2.97
2022-09-28T00:47:51.970Z,3.40
2022-09-28T00:50:28.249Z,3.80
2022-09-28T00:53:04.328Z,3.40
2022-09-28T00:55:40.333Z,4.68
2022-09-28T00:58:16.850Z,5.05
2022-09-28T01:00:48.298Z,6.50
2022-09-28T01:03:20.159Z,7.10
2022-09-28T01:05:51.341Z,5.90
2022-09-28T01:08:24.020Z,5.03
2022-09-28T01:10:53.745Z,5.18
2022-09-28T01:13:27.491Z,5.20
2022-09-28T01:18:50.424Z,4.82
2022-09-28T01:21:23.007Z,5.75
2022-09-28T01:24:21.758Z,6.07
2022-09-28T01:26:59.640Z,4.28
2022-09-28T01:29:42.309Z,3.60
2022-09-28T01:32:20.528Z,3.80
2022-09-28T01:34:59.714Z,2.92
2022-09-28T01:37:35.096Z,2.20
2022-09-28T01:40:07.549Z,2.17
2022-09-28T01:42:48.935Z,2.15
2022-09-28T01:45:25.992Z,1.40
2022-09-28T01:48:00.847Z,1.13
2022-09-28T01:50:33.100Z,1.17
2022-09-28T01:53:10.119Z,1.30
2022-09-28T01:55:44.676Z,1.52
2022-09-28T01:58:22.074Z,1.08
2022-09-28T02:00:59.620Z,1.27
2022-09-28T02:03:37.753Z,1.08
2022-09-28T02:06:14.618Z,1.00
2022-09-28T02:08:52.274Z,1.02
2022-09-28T02:11:24.169Z,1.30
2022-09-28T02:14:01.706Z,1.30
2022-09-28T02:16:37.844Z,1.13
2022-09-28T02:19:09.449Z,1.30
2022-09-28T02:21:46.225Z,1.20
2022-09-28T02:24:21.674Z,1.13
2022-09-28T02:26:53.539Z,1.17
2022-09-28T02:29:26.545Z,1.50
2022-09-28T02:31:56.370Z,1.35
2022-09-28T02:34:26.350Z,1.42
2022-09-28T02:36:56.348Z,1.42
2022-09-28T02:39:26.870Z,1.67
2022-09-28T02:42:10.447Z,1.90
2022-09-28T02:45:06.566Z,1.25
2022-09-28T02:47:57.862Z,1.10
2022-09-28T02:50:39.657Z,1.25
2022-09-28T02:53:44.919Z,1.52
2022-09-28T02:56:33.174Z,1.35
2022-09-28T02:59:16.566Z,1.23
2022-09-28T03:02:01.355Z,1.38
2022-09-28T03:04:37.611Z,1.00
2022-09-28T03:07:19.232Z,1.40
2022-09-28T03:09:57.416Z,1.27
2022-09-28T03:12:30.434Z,1.30
2022-09-28T03:15:13.889Z,1.75
2022-09-28T03:17:48.833Z,1.50
2022-09-28T03:20:19.135Z,1.40
2022-09-28T03:23:12.335Z,1.60
2022-09-28T03:25:43.317Z,1.35
2022-09-28T03:28:15.368Z,1.85
2022-09-28T03:30:47.569Z,1.88
2022-09-28T03:33:20.129Z,1.73
2022-09-28T03:35:50.750Z,1.98
2022-09-28T03:38:21.247Z,1.77
2022-09-28T03:40:55.994Z,1.90
2022-09-28T03:43:26.332Z,2.05
2022-09-28T03:45:57.669Z,2.15
2022-09-28T03:48:33.094Z,1.80
2022-09-28T03:51:04.699Z,1.88
2022-09-28T03:53:35.664Z,2.20
2022-09-28T03:56:06.774Z,2.30
2022-09-28T03:58:37.111Z,1.88
2022-09-28T04:01:09.237Z,1.85
2022-09-28T04:03:44.758Z,1.85
2022-09-28T04:06:15.156Z,1.65
2022-09-28T04:08:44.975Z,1.40
2022-09-28T04:11:15.004Z,1.77
2022-09-28T04:13:44.887Z,1.58
2022-09-28T04:16:14.651Z,1.40
2022-09-28T04:18:47.273Z,1.60
2022-09-28T04:21:23.425Z,1.55
2022-09-28T04:23:53.199Z,1.58
2022-09-28T04:26:24.825Z,1.67
2022-09-28T04:29:07.188Z,1.65
2022-09-28T04:31:42.305Z,1.60
2022-09-28T04:34:17.387Z,1.67
2022-09-28T04:36:47.626Z,1.38
2022-09-28T04:39:19.300Z,1.60
2022-09-28T04:41:51.399Z,1.30
2022-09-28T04:44:21.186Z,1.70
2022-09-28T04:46:50.843Z,1.85
2022-09-28T04:49:24.546Z,1.52
2022-09-28T04:54:30.492Z,1.50
2022-09-28T04:57:02.464Z,1.48
2022-09-28T04:59:39.366Z,2.08
2022-09-28T05:02:09.658Z,2.95
2022-09-28T05:04:43.507Z,2.20
2022-09-28T05:09:48.707Z,2.20
2022-09-28T05:12:19.246Z,2.00
2022-09-28T05:14:49.028Z,1.52
2022-09-28T05:17:18.888Z,2.00
2022-09-28T05:19:51.770Z,2.25
2022-09-28T05:22:23.324Z,2.17
2022-09-28T05:24:54.814Z,1.77
2022-09-28T05:27:24.526Z,2.40
2022-09-28T05:29:54.285Z,2.45
2022-09-28T05:32:24.052Z,2.05
2022-09-28T05:35:01.950Z,2.90
2022-09-28T05:37:31.568Z,2.40
2022-09-28T05:40:01.494Z,2.33
2022-09-28T05:42:31.150Z,2.78
2022-09-28T05:45:01.404Z,2.90
2022-09-28T05:47:31.132Z,2.15
2022-09-28T05:50:03.392Z,2.42
2022-09-28T05:52:33.209Z,2.10
2022-09-28T05:55:03.571Z,2.53
2022-09-28T05:57:34.171Z,2.35
2022-09-28T06:00:08.412Z,3.63
2022-09-28T06:02:38.467Z,2.47
2022-09-28T06:05:11.563Z,2.40
2022-09-28T06:10:12.771Z,1.80
2022-09-28T06:12:43.487Z,2.88
2022-09-28T06:15:13.923Z,1.90
2022-09-28T06:17:45.577Z,2.55
2022-09-28T06:20:19.270Z,2.15
2022-09-28T06:22:49.092Z,2.53
2022-09-28T06:25:22.686Z,2.30
2022-09-28T06:28:03.164Z,2.53
2022-09-28T06:30:39.134Z,2.78
2022-09-28T06:33:13.752Z,2.42
2022-09-28T06:35:48.305Z,2.17
2022-09-28T06:38:20.691Z,2.53
2022-09-28T06:40:52.089Z,2.83
2022-09-28T06:43:21.956Z,3.03
2022-09-28T06:45:55.038Z,3.70
2022-09-28T06:48:24.732Z,3.00
2022-09-28T06:50:59.270Z,3.20
2022-09-28T06:53:29.506Z,2.75
2022-09-28T06:56:00.625Z,2.97
2022-09-28T06:58:31.562Z,2.40
2022-09-28T07:01:02.141Z,4.03
2022-09-28T07:03:31.795Z,3.47
2022-09-28T07:06:05.085Z,3.42
2022-09-28T07:08:34.884Z,3.58
2022-09-28T07:11:09.142Z,2.80
2022-09-28T07:13:55.999Z,3.40
2022-09-28T07:16:32.959Z,3.83
2022-09-28T07:19:11.086Z,3.00
2022-09-28T07:21:44.277Z,3.50
2022-09-28T07:24:14.836Z,3.00
2022-09-28T07:26:45.556Z,3.97
2022-09-28T07:29:16.307Z,4.00
2022-09-28T07:31:47.043Z,3.58
2022-09-28T07:34:18.686Z,3.78
2022-09-28T07:36:59.021Z,3.60
2022-09-28T07:39:28.660Z,3.45
2022-09-28T07:41:59.662Z,3.15
2022-09-28T07:47:02.721Z,2.90
2022-09-28T07:49:32.443Z,3.53
2022-09-28T07:52:09.167Z,3.38
2022-09-28T07:54:39.522Z,3.47
2022-09-28T07:57:11.674Z,3.47
2022-09-28T07:59:41.669Z,3.60
2022-09-28T08:02:13.558Z,3.70
2022-09-28T08:04:43.654Z,4.57
2022-09-28T08:07:19.467Z,3.72
2022-09-28T08:09:52.576Z,3.92
2022-09-28T08:12:22.923Z,3.35
2022-09-28T08:14:55.977Z,3.20
2022-09-28T08:17:25.580Z,2.97
2022-09-28T08:20:07.674Z,2.45
2022-09-28T08:22:39.984Z,2.55
2022-09-28T08:25:11.385Z,1.88
2022-09-28T08:27:41.165Z,2.10
2022-09-28T08:30:12.455Z,1.60
2022-09-28T08:32:42.630Z,1.38
2022-09-28T08:35:12.585Z,1.58
2022-09-28T08:37:48.874Z,1.60
2022-09-28T08:40:26.465Z,1.70
2022-09-28T08:42:59.566Z,1.90
2022-09-28T08:45:33.730Z,1.63
2022-09-28T08:48:19.104Z,1.50
2022-09-28T08:50:55.365Z,1.55
2022-09-28T08:53:40.157Z,1.67
2022-09-28T08:56:17.786Z,1.70
2022-09-28T08:58:52.505Z,1.50
2022-09-28T09:01:23.076Z,1.60
2022-09-28T09:03:52.829Z,1.50
2022-09-28T09:06:33.437Z,2.00
2022-09-28T09:09:13.314Z,1.48
2022-09-28T09:11:58.711Z,1.63
2022-09-28T09:14:56.703Z,1.23
2022-09-28T09:17:33.887Z,1.30
2022-09-28T09:20:14.080Z,1.52
2022-09-28T09:22:48.345Z,1.10
2022-09-28T09:25:28.377Z,1.40
2022-09-28T09:28:35.453Z,1.50
2022-09-28T09:31:16.885Z,1.15
2022-09-28T09:34:23.175Z,1.37
2022-09-28T09:37:16.825Z,1.48
2022-09-28T09:40:04.396Z,1.05
2022-09-28T09:42:51.464Z,2.20
2022-09-28T09:45:52.956Z,1.17
2022-09-28T09:48:29.463Z,1.20
2022-09-28T09:51:03.952Z,1.15
2022-09-28T09:53:40.897Z,1.27
2022-09-28T09:56:16.460Z,1.50
2022-09-28T09:58:52.899Z,1.10
2022-09-28T10:01:27.126Z,1.65
2022-09-28T10:03:59.085Z,1.40
2022-09-28T10:06:34.549Z,1.55
2022-09-28T10:09:07.646Z,1.30
2022-09-28T10:11:41.167Z,1.35
2022-09-28T10:14:16.686Z,1.33
2022-09-28T10:16:48.544Z,1.27
2022-09-28T10:19:21.538Z,1.13
2022-09-28T10:21:53.317Z,1.55
2022-09-28T10:24:30.849Z,1.00
2022-09-28T10:27:07.891Z,1.00
2022-09-28T10:29:48.606Z,0.85
2022-09-28T10:32:24.412Z,0.65
2022-09-28T10:34:55.347Z,0.70
2022-09-28T10:37:25.222Z,1.00
2022-09-28T10:39:56.963Z,0.85
2022-09-28T10:42:31.283Z,1.15
2022-09-28T10:45:07.171Z,1.13
2022-09-28T10:47:38.649Z,1.10
2022-09-28T10:50:22.700Z,1.20
2022-09-28T10:52:52.692Z,1.30
2022-09-28T10:55:32.493Z,1.05
2022-09-28T10:58:02.798Z,1.17
2022-09-28T11:00:40.465Z,1.70
2022-09-28T11:03:21.410Z,1.60
2022-09-28T11:06:03.562Z,1.20
2022-09-28T11:08:39.017Z,1.40
2022-09-28T11:11:12.382Z,1.45
2022-09-28T11:13:49.616Z,1.70
2022-09-28T11:16:28.778Z,1.30
2022-09-28T11:18:59.491Z,1.63
2022-09-28T11:21:32.323Z,1.40
2022-09-28T11:24:07.174Z,1.20
2022-09-28T11:26:45.239Z,1.27
2022-09-28T11:29:24.810Z,1.30
2022-09-28T11:32:03.767Z,0.88
2022-09-28T11:34:57.878Z,1.10
2022-09-28T11:40:26.021Z,1.20
2022-09-28T11:43:14.403Z,1.45
2022-09-28T11:45:57.162Z,1.00
2022-09-28T11:48:36.130Z,1.15
2022-09-28T11:51:11.151Z,0.55
2022-09-28T11:53:46.715Z,0.70
2022-09-28T11:56:27.574Z,0.80
2022-09-28T11:59:02.736Z,0.80
2022-09-28T12:01:39.177Z,0.68
2022-09-28T12:04:14.901Z,0.95
2022-09-28T12:06:50.902Z,0.98
2022-09-28T12:09:25.405Z,0.95
2022-09-28T12:12:01.796Z,1.15
2022-09-28T12:14:36.215Z,1.10
2022-09-28T12:17:16.587Z,1.08
2022-09-28T12:22:29.719Z,1.00
2022-09-28T12:25:00.908Z,0.73
2022-09-28T12:27:38.954Z,0.98
2022-09-28T12:30:19.401Z,1.15
2022-09-28T12:32:54.182Z,1.10
2022-09-28T12:35:38.806Z,0.90
2022-09-28T12:38:28.783Z,1.08
2022-09-28T12:41:06.788Z,0.80
2022-09-28T12:43:49.640Z,1.08
2022-09-28T12:46:49.111Z,1.05
2022-09-28T12:52:34.774Z,0.95
2022-09-28T12:55:18.032Z,1.05
2022-09-28T12:57:59.525Z,1.08
2022-09-28T13:00:34.794Z,1.17
2022-09-28T13:03:32.039Z,1.10
2022-09-28T13:06:34.430Z,0.77
2022-09-28T13:09:20.134Z,1.15
2022-09-28T13:12:06.920Z,1.30
2022-09-28T13:15:18.681Z,1.20
2022-09-28T13:17:55.404Z,1.13
2022-09-28T13:20:32.996Z,1.00
2022-09-28T13:23:15.242Z,1.13
2022-09-28T13:25:56.078Z,0.98
2022-09-28T13:28:27.572Z,1.00
2022-09-28T13:31:00.817Z,1.23
2022-09-28T13:33:37.183Z,1.05
2022-09-28T13:36:27.876Z,2.22
2022-09-28T13:38:59.534Z,1.00
2022-09-28T13:41:34.924Z,1.10
2022-09-28T13:44:37.978Z,1.40
2022-09-28T13:47:30.631Z,1.13
2022-09-28T13:50:16.395Z,1.30
2022-09-28T13:52:51.078Z,1.25
2022-09-28T13:55:36.007Z,0.98
2022-09-28T13:58:17.924Z,1.05
2022-09-28T14:00:52.662Z,1.05
2022-09-28T14:03:31.539Z,1.08
2022-09-28T14:06:23.126Z,1.10
2022-09-28T14:09:12.410Z,1.05
2022-09-28T14:11:56.507Z,0.80
2022-09-28T14:14:51.999Z,0.80
2022-09-28T14:17:54.463Z,1.73
2022-09-28T14:20:28.997Z,1.10
2022-09-28T14:23:26.770Z,0.98
2022-09-28T14:26:09.445Z,2.35
2022-09-28T14:28:51.975Z,0.98
2022-09-28T14:31:29.239Z,1.10
2022-09-28T14:34:01.697Z,1.50
2022-09-28T14:36:51.371Z,1.20
2022-09-28T14:39:38.998Z,2.33
2022-09-28T14:42:15.750Z,1.98
2022-09-28T14:45:16.752Z,2.00
2022-09-28T14:48:23.718Z,2.00
2022-09-28T14:50:55.822Z,2.03
2022-09-28T14:53:27.262Z,2.08
2022-09-28T14:56:00.546Z,2.20
2022-09-28T14:58:33.695Z,1.65
2022-09-28T15:01:08.245Z,2.03
2022-09-28T15:03:44.308Z,2.08
2022-09-28T15:06:19.875Z,2.15
2022-09-28T15:08:49.660Z,2.22
2022-09-28T15:11:23.684Z,2.20
2022-09-28T15:13:57.240Z,2.08
2022-09-28T15:16:27.626Z,2.22
2022-09-28T15:19:20.611Z,2.17
2022-09-28T15:21:51.284Z,2.00
2022-09-28T15:24:28.819Z,2.00
2022-09-28T15:26:59.233Z,2.00
2022-09-28T15:29:31.733Z,2.03
2022-09-28T15:32:01.931Z,2.10
2022-09-28T15:34:48.586Z,2.33
2022-09-28T15:37:21.955Z,2.08
2022-09-28T15:39:53.062Z,3.42
2022-09-28T15:42:23.244Z,3.65
2022-09-28T15:45:30.914Z,2.38
2022-09-28T15:48:22.406Z,2.20
2022-09-28T15:51:10.262Z,2.30
2022-09-28T15:53:45.079Z,2.20
2022-09-28T15:56:14.786Z,1.90
2022-09-28T15:58:44.681Z,2.88
2022-09-28T16:01:36.198Z,2.50
2022-09-28T16:04:36.369Z,2.88
2022-09-28T16:07:26.120Z,2.42
2022-09-28T16:10:04.266Z,2.80
2022-09-28T16:12:44.584Z,2.20
2022-09-28T16:15:22.946Z,2.42
2022-09-28T16:17:55.120Z,2.28
2022-09-28T16:20:29.649Z,2.00
2022-09-28T16:23:07.462Z,2.33
2022-09-28T16:25:40.351Z,2.38
2022-09-28T16:28:10.634Z,2.50
2022-09-28T16:31:01.879Z,2.05
2022-09-28T16:33:33.995Z,2.17
2022-09-28T16:36:05.778Z,2.17
2022-09-28T16:38:39.222Z,2.13
2022-09-28T16:41:09.068Z,2.25
2022-09-28T16:43:39.007Z,2.35
2022-09-28T16:46:12.187Z,2.22
2022-09-28T16:48:48.830Z,2.03
2022-09-28T16:51:18.975Z,2.20
2022-09-28T16:54:04.185Z,2.15
2022-09-28T16:56:34.729Z,2.40
2022-09-28T16:59:05.041Z,2.72
2022-09-28T17:01:35.433Z,2.88
2022-09-28T17:04:05.413Z,3.15
2022-09-28T17:06:35.370Z,2.60
2022-09-28T17:09:07.860Z,3.47
2022-09-28T17:11:37.555Z,3.38
2022-09-28T17:14:08.902Z,2.78
2022-09-28T17:17:06.971Z,2.40
2022-09-28T17:19:33.228Z,3.38
2022-09-28T17:22:03.442Z,2.60
2022-09-28T17:24:35.699Z,2.10
2022-09-28T17:27:07.045Z,2.20
2022-09-28T17:29:36.692Z,2.03
2022-09-28T17:32:14.836Z,2.38
2022-09-28T17:34:51.625Z,2.53
2022-09-28T17:37:25.948Z,2.83
2022-09-28T17:39:58.490Z,2.95
2022-09-28T17:42:28.358Z,3.28
2022-09-28T17:44:58.103Z,2.83
2022-09-28T17:47:32.181Z,3.20
2022-09-28T17:50:03.974Z,3.17
2022-09-28T17:52:33.790Z,3.75
2022-09-28T17:55:06.117Z,3.20
2022-09-28T17:57:36.040Z,3.38
2022-09-28T18:00:06.774Z,3.53
2022-09-28T18:02:36.596Z,3.15
2022-09-28T18:05:06.705Z,3.22
2022-09-28T18:07:37.081Z,3.00
2022-09-28T18:10:12.276Z,3.38
2022-09-28T18:12:43.218Z,4.70
2022-09-28T18:15:13.940Z,5.03
2022-09-28T18:17:44.318Z,5.25
2022-09-28T18:20:15.925Z,3.97
2022-09-28T18:22:45.734Z,3.58
2022-09-28T18:25:19.700Z,3.83
2022-09-28T18:27:53.365Z,3.47
2022-09-28T18:30:23.714Z,3.53
2022-09-28T18:32:53.641Z,3.80
2022-09-28T18:35:23.898Z,3.38
2022-09-28T18:37:54.373Z,3.53
2022-09-28T18:40:27.744Z,3.90
2022-09-28T18:42:57.558Z,6.18
2022-09-28T18:45:27.203Z,5.28
2022-09-28T18:47:57.019Z,5.80
2022-09-28T18:50:27.041Z,6.47
2022-09-28T18:53:11.481Z,5.13
2022-09-28T18:55:46.010Z,7.07
2022-09-28T18:58:15.699Z,8.05
2022-09-28T19:00:45.603Z,9.27
2022-09-28T19:03:15.532Z,9.02
2022-09-28T19:05:46.587Z,7.68
2022-09-28T19:08:16.480Z,8.00
2022-09-28T19:10:48.875Z,7.70
2022-09-28T19:13:18.456Z,8.10
2022-09-28T19:15:48.390Z,6.50
2022-09-28T19:18:18.038Z,7.28
2022-09-28T19:20:47.775Z,6.88
2022-09-28T19:23:17.634Z,6.80
2022-09-28T19:25:49.827Z,5.45
2022-09-28T19:28:19.519Z,5.45
2022-09-28T19:30:58.615Z,6.28
2022-09-28T19:33:29.265Z,6.57
2022-09-28T19:36:02.249Z,8.57
2022-09-28T19:38:33.432Z,7.28
2022-09-28T19:41:11.610Z,7.85
2022-09-28T19:43:43.863Z,9.10
2022-09-28T19:46:15.942Z,9.00
2022-09-28T19:48:45.650Z,9.93
2022-09-28T19:51:15.828Z,8.65
2022-09-28T19:53:45.544Z,10.50
2022-09-28T19:56:18.938Z,9.57
2022-09-28T19:58:48.604Z,9.40
2022-09-28T20:01:18.590Z,8.43
2022-09-28T20:03:48.266Z,7.95
2022-09-28T20:06:17.899Z,7.57
2022-09-28T20:08:47.542Z,5.82
2022-09-28T20:11:19.849Z,6.65
2022-09-28T20:13:50.035Z,5.38
2022-09-28T20:16:24.467Z,5.13
2022-09-28T20:18:58.284Z,5.43
2022-09-28T20:23:59.076Z,5.57
2022-09-28T20:26:37.414Z,5.18
2022-09-28T20:29:08.135Z,5.00
2022-09-28T20:31:41.148Z,5.53
2022-09-28T20:34:10.884Z,5.55
2022-09-28T20:36:42.483Z,6.05
2022-09-28T20:39:13.505Z,5.82
2022-09-28T20:41:47.239Z,5.32
2022-09-28T20:46:47.386Z,5.10
2022-09-28T20:49:16.988Z,5.38
2022-09-28T20:51:46.823Z,4.72
2022-09-28T20:54:16.544Z,5.03
2022-09-28T20:56:48.909Z,6.00
2022-09-28T20:59:20.385Z,5.22
2022-09-28T21:01:52.477Z,5.32
2022-09-28T21:04:24.918Z,5.65
2022-09-28T21:06:54.792Z,4.90
2022-09-28T21:09:26.751Z,5.28
2022-09-28T21:12:02.190Z,5.38
2022-09-28T21:14:37.793Z,5.18
2022-09-28T21:17:07.701Z,5.53
2022-09-28T21:19:37.514Z,5.18
2022-09-28T21:22:07.729Z,4.32
2022-09-28T21:24:37.804Z,5.55
2022-09-28T21:27:10.048Z,5.13
2022-09-28T21:29:39.952Z,4.10
2022-09-28T21:32:09.555Z,4.35
2022-09-28T21:34:39.156Z,5.05
2022-09-28T21:37:09.182Z,4.57
2022-09-28T21:39:38.831Z,4.75
2022-09-28T21:42:11.487Z,4.43
2022-09-28T21:44:41.133Z,4.88
2022-09-28T21:47:11.088Z,5.03
2022-09-28T21:49:41.790Z,4.80
2022-09-28T21:52:11.961Z,4.15
2022-09-28T21:54:42.883Z,4.70
2022-09-28T21:57:15.189Z,4.00
2022-09-28T21:59:47.602Z,3.90
2022-09-28T22:02:17.358Z,4.40
2022-09-28T22:04:47.157Z,4.38
2022-09-28T22:07:17.072Z,4.05
2022-09-28T22:09:50.438Z,4.43
2022-09-28T22:12:25.199Z,4.72
2022-09-28T22:14:54.839Z,4.30
2022-09-28T22:17:24.591Z,4.50
2022-09-28T22:19:54.203Z,4.47
2022-09-28T22:22:28.397Z,4.00
2022-09-28T22:24:58.874Z,4.28
2022-09-28T22:27:34.082Z,4.22
2022-09-28T22:30:04.740Z,3.83
2022-09-28T22:32:34.634Z,4.20
2022-09-28T22:35:04.840Z,3.72
2022-09-28T22:37:34.525Z,3.45
2022-09-28T22:40:04.894Z,3.78
2022-09-28T22:42:38.215Z,4.97
2022-09-28T22:45:10.019Z,3.65
2022-09-28T22:47:39.587Z,3.13
2022-09-28T22:50:10.209Z,3.47
2022-09-28T22:52:39.818Z,3.70
2022-09-28T22:55:10.125Z,3.65
2022-09-28T22:57:42.402Z,3.53
2022-09-28T23:00:13.054Z,3.70
2022-09-28T23:02:42.845Z,3.30
2022-09-28T23:05:12.602Z,3.00
2022-09-28T23:07:42.311Z,3.20
2022-09-28T23:10:12.892Z,3.50
2022-09-28T23:12:45.216Z,3.63
2022-09-28T23:15:15.496Z,3.50
2022-09-28T23:17:45.110Z,3.45
2022-09-28T23:20:14.767Z,3.22
2022-09-28T23:22:48.678Z,4.03
2022-09-28T23:25:18.642Z,3.10
2022-09-28T23:27:52.270Z,3.50
2022-09-28T23:30:24.090Z,3.22
2022-09-28T23:32:55.221Z,3.90
2022-09-28T23:35:25.432Z,3.65
2022-09-28T23:37:56.500Z,3.15
2022-09-28T23:40:26.242Z,3.72
2022-09-28T23:42:58.631Z,3.03
2022-09-28T23:45:28.326Z,3.97
2022-09-28T23:47:57.983Z,3.70
2022-09-28T23:50:28.336Z,3.63
2022-09-28T23:52:58.087Z,3.65
2022-09-28T23:55:27.935Z,3.80
2022-09-28T23:58:00.514Z,3.30
